createdAt,value
2017-05-04T00:00:57.002Z,10.85
2017-05-04T00:01:57.610Z,10.83
2017-05-04T00:02:58.252Z,10.83
2017-05-04T00:03:58.849Z,10.82
2017-05-04T00:04:59.459Z,10.83
2017-05-04T00:06:00.116Z,10.83
2017-05-04T00:07:00.722Z,10.87
2017-05-04T00:08:01.328Z,10.83
2017-05-04T00:09:01.937Z,10.85
2017-05-04T00:10:02.543Z,10.87
2017-05-04T00:11:03.185Z,10.82
2017-05-04T00:12:03.799Z,10.81
2017-05-04T00:13:04.404Z,10.85
2017-05-04T00:14:05.012Z,10.89
2017-05-04T00:15:05.613Z,10.96
2017-05-04T00:16:06.273Z,10.85
2017-05-04T00:17:06.957Z,10.72
2017-05-04T00:18:08.550Z,10.81
2017-05-04T00:19:09.142Z,10.76
2017-05-04T00:20:09.749Z,10.75
2017-05-04T00:21:10.407Z,10.75
2017-05-04T00:22:11.005Z,10.72
2017-05-04T00:23:11.608Z,10.75
2017-05-04T00:24:12.235Z,10.82
2017-05-04T00:25:12.810Z,10.79
2017-05-04T00:26:13.417Z,10.76
2017-05-04T00:27:14.025Z,10.75
2017-05-04T00:28:14.639Z,10.71
2017-05-04T00:29:15.246Z,10.69
2017-05-04T00:30:15.847Z,10.76
2017-05-04T00:31:16.448Z,10.74
2017-05-04T00:32:17.055Z,10.76
2017-05-04T00:33:17.673Z,10.79
2017-05-04T00:34:18.278Z,10.74
2017-05-04T00:35:18.879Z,10.78
2017-05-04T00:36:19.524Z,10.78
2017-05-04T00:37:20.163Z,10.79
2017-05-04T00:38:20.820Z,10.76
2017-05-04T00:39:21.460Z,10.75
2017-05-04T00:40:22.068Z,10.76
2017-05-04T00:41:22.741Z,10.82
2017-05-04T00:42:23.359Z,10.79
2017-05-04T00:43:23.994Z,10.76
2017-05-04T00:44:24.568Z,10.74
2017-05-04T00:45:25.178Z,10.75
2017-05-04T00:46:25.875Z,10.82
2017-05-04T00:47:26.495Z,10.79
2017-05-04T00:48:27.099Z,10.76
2017-05-04T00:49:27.710Z,10.71
2017-05-04T00:50:28.318Z,10.64
2017-05-04T00:51:28.917Z,10.58
2017-05-04T00:52:29.525Z,10.66
2017-05-04T00:53:30.130Z,10.60
2017-05-04T00:54:30.725Z,10.64
2017-05-04T00:55:31.336Z,10.66
2017-05-04T00:56:31.943Z,10.75
2017-05-04T00:57:32.547Z,10.79
2017-05-04T00:58:33.154Z,10.67
2017-05-04T00:59:33.751Z,10.66
2017-05-04T01:00:34.347Z,10.78
2017-05-04T01:01:34.975Z,10.78
2017-05-04T01:02:35.620Z,10.72
2017-05-04T01:03:36.257Z,10.74
2017-05-04T01:04:36.845Z,10.76
2017-05-04T01:05:37.458Z,10.76
2017-05-04T01:06:38.070Z,10.69
2017-05-04T01:07:38.667Z,10.72
2017-05-04T01:08:39.275Z,10.63
2017-05-04T01:09:39.882Z,10.66
2017-05-04T01:10:40.480Z,10.67
2017-05-04T01:11:41.079Z,10.60
2017-05-04T01:12:41.689Z,10.67
2017-05-04T01:13:42.335Z,10.69
2017-05-04T01:14:42.953Z,10.61
2017-05-04T01:15:43.550Z,10.64
2017-05-04T01:16:44.167Z,10.61
2017-05-04T01:17:44.771Z,10.57
2017-05-04T01:18:45.379Z,10.58
2017-05-04T01:19:45.983Z,10.61
2017-05-04T01:20:46.589Z,10.60
2017-05-04T01:21:47.251Z,10.47
2017-05-04T01:22:47.854Z,10.56
2017-05-04T01:23:48.448Z,10.45
2017-05-04T01:24:49.062Z,10.44
2017-05-04T01:25:49.660Z,10.47
2017-05-04T01:26:50.275Z,10.49
2017-05-04T01:27:50.879Z,10.51
2017-05-04T01:28:51.481Z,10.44
2017-05-04T01:29:52.074Z,10.45
2017-05-04T01:30:52.669Z,10.47
2017-05-04T01:31:53.310Z,10.44
2017-05-04T01:32:53.907Z,10.44
2017-05-04T01:33:54.518Z,10.42
2017-05-04T01:34:55.111Z,10.38
2017-05-04T01:35:55.723Z,10.44
2017-05-04T01:36:56.332Z,10.39
2017-05-04T01:37:56.937Z,10.42
2017-05-04T01:38:57.531Z,10.45
2017-05-04T01:39:58.142Z,10.45
2017-05-04T01:40:58.742Z,10.45
2017-05-04T01:41:59.408Z,10.49
2017-05-04T01:43:00.020Z,10.51
2017-05-04T01:44:00.613Z,10.45
2017-05-04T01:45:01.219Z,10.45
2017-05-04T01:46:01.816Z,10.51
2017-05-04T01:47:02.419Z,10.49
2017-05-04T01:48:03.023Z,10.58
2017-05-04T01:49:03.618Z,10.53
2017-05-04T01:50:04.230Z,10.63
2017-05-04T01:51:04.839Z,10.57
2017-05-04T01:52:05.502Z,10.61
2017-05-04T01:53:06.098Z,10.64
2017-05-04T01:54:06.692Z,10.69
2017-05-04T01:55:07.287Z,10.66
2017-05-04T01:56:07.895Z,10.66
2017-05-04T01:57:08.559Z,10.72
2017-05-04T01:58:09.172Z,10.75
2017-05-04T01:59:09.768Z,10.74
2017-05-04T02:00:10.370Z,10.78
2017-05-04T02:01:10.980Z,10.78
2017-05-04T02:02:11.586Z,10.78
2017-05-04T02:03:12.198Z,10.75
2017-05-04T02:04:12.813Z,10.72
2017-05-04T02:05:13.421Z,10.76
2017-05-04T02:06:14.029Z,10.69
2017-05-04T02:07:14.688Z,10.82
2017-05-04T02:08:15.302Z,10.75
2017-05-04T02:09:15.912Z,10.76
2017-05-04T02:10:16.504Z,10.74
2017-05-04T02:11:17.133Z,10.76
2017-05-04T02:12:17.717Z,10.63
2017-05-04T02:13:18.310Z,10.76
2017-05-04T02:14:18.905Z,10.76
2017-05-04T02:15:19.503Z,10.75
2017-05-04T02:16:20.112Z,10.75
2017-05-04T02:17:20.762Z,10.67
2017-05-04T02:18:21.371Z,10.74
2017-05-04T02:19:21.982Z,10.72
2017-05-04T02:20:22.589Z,10.74
2017-05-04T02:21:23.184Z,10.75
2017-05-04T02:22:23.792Z,10.75
2017-05-04T02:23:24.387Z,10.69
2017-05-04T02:24:25.001Z,10.71
2017-05-04T02:25:25.606Z,10.63
2017-05-04T02:26:26.217Z,10.69
2017-05-04T02:27:26.826Z,10.66
2017-05-04T02:28:27.440Z,10.67
2017-05-04T02:29:28.037Z,10.61
2017-05-04T02:30:28.646Z,10.71
2017-05-04T02:31:29.251Z,10.71
2017-05-04T02:32:29.908Z,10.67
2017-05-04T02:33:30.508Z,10.74
2017-05-04T02:34:31.117Z,10.78
2017-05-04T02:35:31.727Z,10.72
2017-05-04T02:36:32.322Z,10.74
2017-05-04T02:37:32.982Z,10.71
2017-05-04T02:38:33.593Z,10.69
2017-05-04T02:39:34.204Z,10.75
2017-05-04T02:40:34.798Z,10.75
2017-05-04T02:41:35.409Z,10.72
2017-05-04T02:42:36.011Z,10.69
2017-05-04T02:43:36.607Z,10.64
2017-05-04T02:44:37.218Z,10.63
2017-05-04T02:45:37.828Z,10.66
2017-05-04T02:46:38.437Z,10.72
2017-05-04T02:47:39.071Z,10.66
2017-05-04T02:48:39.646Z,10.76
2017-05-04T02:49:40.252Z,10.64
2017-05-04T02:50:40.848Z,10.58
2017-05-04T02:51:41.458Z,10.78
2017-05-04T02:52:42.119Z,10.61
2017-05-04T02:53:42.734Z,10.69
2017-05-04T02:54:43.341Z,10.61
2017-05-04T02:55:43.950Z,10.75
2017-05-04T02:56:44.565Z,10.69
2017-05-04T02:57:45.219Z,10.60
2017-05-04T02:58:45.823Z,10.61
2017-05-04T02:59:46.433Z,10.66
2017-05-04T03:00:47.039Z,10.66
2017-05-04T03:01:47.659Z,10.64
2017-05-04T03:02:48.319Z,10.63
2017-05-04T03:03:48.930Z,10.63
2017-05-04T03:04:49.533Z,10.66
2017-05-04T03:05:50.135Z,10.60
2017-05-04T03:06:50.730Z,10.61
2017-05-04T03:07:51.325Z,10.63
2017-05-04T03:08:51.931Z,10.63
2017-05-04T03:09:52.541Z,10.66
2017-05-04T03:10:53.152Z,10.63
2017-05-04T03:11:53.765Z,10.64
2017-05-04T03:12:54.423Z,10.71
2017-05-04T03:13:55.031Z,10.61
2017-05-04T03:14:55.639Z,10.60
2017-05-04T03:15:56.246Z,10.64
2017-05-04T03:16:56.858Z,10.60
2017-05-04T03:17:57.460Z,10.69
2017-05-04T03:18:58.068Z,10.69
2017-05-04T03:19:58.674Z,10.67
2017-05-04T03:20:59.286Z,10.63
2017-05-04T03:21:59.899Z,10.58
2017-05-04T03:23:00.561Z,10.71
2017-05-04T03:24:01.154Z,10.69
2017-05-04T03:25:01.762Z,10.56
2017-05-04T03:26:02.369Z,10.56
2017-05-04T03:27:02.975Z,10.56
2017-05-04T03:28:03.585Z,10.54
2017-05-04T03:29:04.194Z,10.63
2017-05-04T03:30:04.788Z,10.64
2017-05-04T03:31:05.394Z,10.60
2017-05-04T03:32:05.997Z,10.67
2017-05-04T03:33:06.591Z,10.63
2017-05-04T03:34:07.203Z,10.71
2017-05-04T03:35:07.814Z,10.72
2017-05-04T03:36:08.417Z,10.67
2017-05-04T03:37:09.013Z,10.60
2017-05-04T03:38:09.664Z,10.69
2017-05-04T03:39:10.276Z,10.64
2017-05-04T03:40:10.886Z,10.72
2017-05-04T03:41:11.488Z,10.63
2017-05-04T03:42:12.109Z,10.69
2017-05-04T03:43:12.713Z,10.64
2017-05-04T03:44:13.323Z,10.64
2017-05-04T03:45:13.938Z,10.56
2017-05-04T03:46:14.548Z,10.60
2017-05-04T03:47:15.160Z,10.49
2017-05-04T03:48:15.819Z,10.61
2017-05-04T03:49:16.428Z,10.61
2017-05-04T03:50:17.038Z,10.61
2017-05-04T03:51:17.645Z,10.58
2017-05-04T03:52:18.245Z,10.54
2017-05-04T03:53:18.894Z,10.56
2017-05-04T03:54:19.495Z,10.60
2017-05-04T03:55:20.110Z,10.58
2017-05-04T03:56:20.703Z,10.58
2017-05-04T03:57:21.312Z,10.49
2017-05-04T03:58:21.973Z,10.57
2017-05-04T03:59:22.578Z,10.58
2017-05-04T04:00:23.174Z,10.57
2017-05-04T04:01:23.782Z,10.56
2017-05-04T04:02:24.395Z,10.58
2017-05-04T04:03:25.005Z,10.57
2017-05-04T04:04:25.618Z,10.56
2017-05-04T04:05:26.227Z,10.61
2017-05-04T04:06:26.841Z,10.67
2017-05-04T04:07:27.438Z,10.60
2017-05-04T04:08:28.050Z,10.63
2017-05-04T04:09:28.653Z,10.64
2017-05-04T04:10:29.255Z,10.66
2017-05-04T04:11:29.857Z,10.66
2017-05-04T04:12:30.474Z,10.63
2017-05-04T04:13:31.070Z,10.67
2017-05-04T04:14:31.680Z,10.61
2017-05-04T04:15:32.280Z,10.67
2017-05-04T04:16:32.900Z,10.72
2017-05-04T04:17:33.492Z,10.63
2017-05-04T04:18:34.144Z,10.64
2017-05-04T04:19:34.741Z,10.67
2017-05-04T04:20:35.345Z,10.64
2017-05-04T04:21:35.958Z,10.69
2017-05-04T04:22:36.562Z,10.66
2017-05-04T04:23:37.221Z,10.67
2017-05-04T04:24:37.881Z,10.67
2017-05-04T04:25:38.511Z,10.69
2017-05-04T04:26:39.118Z,10.63
2017-05-04T04:27:39.730Z,10.67
2017-05-04T04:28:40.384Z,10.67
2017-05-04T04:29:40.997Z,10.63
2017-05-04T04:30:41.627Z,10.67
2017-05-04T04:31:42.220Z,10.61
2017-05-04T04:32:42.822Z,10.71
2017-05-04T04:33:43.498Z,10.71
2017-05-04T04:34:44.106Z,10.67
2017-05-04T04:35:44.714Z,10.71
2017-05-04T04:36:45.327Z,10.75
2017-05-04T04:37:45.932Z,10.74
2017-05-04T04:38:46.589Z,10.89
2017-05-04T04:39:47.205Z,10.78
2017-05-04T04:40:47.829Z,10.90
2017-05-04T04:41:48.431Z,10.85
2017-05-04T04:42:49.037Z,10.93
2017-05-04T04:43:49.654Z,10.83
2017-05-04T04:44:50.270Z,10.82
2017-05-04T04:45:50.883Z,10.81
2017-05-04T04:46:51.497Z,10.91
2017-05-04T04:47:52.103Z,10.91
2017-05-04T04:48:52.702Z,10.94
2017-05-04T04:49:53.315Z,10.81
2017-05-04T04:50:53.936Z,10.93
2017-05-04T04:51:54.545Z,10.89
2017-05-04T04:52:55.148Z,10.83
2017-05-04T04:53:55.806Z,10.83
2017-05-04T04:54:56.433Z,10.83
2017-05-04T04:55:57.059Z,10.82
2017-05-04T04:56:57.678Z,10.87
2017-05-04T04:57:58.298Z,10.81
2017-05-04T04:58:58.894Z,10.81
2017-05-04T04:59:59.497Z,10.94
2017-05-04T05:01:00.239Z,10.81
2017-05-04T05:02:00.880Z,10.94
2017-05-04T05:03:01.502Z,10.87
2017-05-04T05:04:02.168Z,10.93
2017-05-04T05:05:02.788Z,10.93
2017-05-04T05:06:03.389Z,10.90
2017-05-04T05:07:03.992Z,10.87
2017-05-04T05:08:04.603Z,10.93
2017-05-04T05:09:05.218Z,11.00
2017-05-04T05:10:05.825Z,11.01
2017-05-04T05:11:06.438Z,10.99
2017-05-04T05:12:07.055Z,11.03
2017-05-04T05:13:07.664Z,11.04
2017-05-04T05:14:08.324Z,11.09
2017-05-04T05:15:08.934Z,11.09
2017-05-04T05:16:09.546Z,11.03
2017-05-04T05:17:10.151Z,11.18
2017-05-04T05:18:10.752Z,11.21
2017-05-04T05:19:11.356Z,11.21
2017-05-04T05:20:11.959Z,11.26
2017-05-04T05:21:12.570Z,11.29
2017-05-04T05:22:13.183Z,11.29
2017-05-04T05:23:13.800Z,11.24
2017-05-04T05:24:14.416Z,11.16
2017-05-04T05:25:15.029Z,11.26
2017-05-04T05:26:15.640Z,11.16
2017-05-04T05:27:16.240Z,11.18
2017-05-04T05:28:16.851Z,11.22
2017-05-04T05:29:17.509Z,11.29
2017-05-04T05:30:18.115Z,11.21
2017-05-04T05:31:18.730Z,11.24
2017-05-04T05:32:19.330Z,11.18
2017-05-04T05:33:19.929Z,11.29
2017-05-04T05:34:20.588Z,11.19
2017-05-04T05:35:21.204Z,11.21
2017-05-04T05:36:21.824Z,11.30
2017-05-04T05:37:22.436Z,11.27
2017-05-04T05:38:23.050Z,11.26
2017-05-04T05:39:23.720Z,11.29
2017-05-04T05:40:24.329Z,11.29
2017-05-04T05:41:24.940Z,11.32
2017-05-04T05:42:25.561Z,11.22
2017-05-04T05:43:26.164Z,11.27
2017-05-04T05:44:26.830Z,11.29
2017-05-04T05:45:27.439Z,11.33
2017-05-04T05:46:28.061Z,11.34
2017-05-04T05:47:28.664Z,11.26
2017-05-04T05:48:29.279Z,11.27
2017-05-04T05:49:29.946Z,11.26
2017-05-04T05:50:30.557Z,11.30
2017-05-04T05:51:31.183Z,11.18
2017-05-04T05:52:31.821Z,11.30
2017-05-04T05:53:32.441Z,11.22
2017-05-04T05:54:33.088Z,11.19
2017-05-04T05:55:33.693Z,11.19
2017-05-04T05:56:34.288Z,11.22
2017-05-04T05:57:34.906Z,11.19
2017-05-04T05:58:35.533Z,11.26
2017-05-04T05:59:36.184Z,11.30
2017-05-04T06:00:36.787Z,11.27
2017-05-04T06:01:37.407Z,11.24
2017-05-04T06:02:38.018Z,11.15
2017-05-04T06:03:38.623Z,11.21
2017-05-04T06:04:39.246Z,11.19
2017-05-04T06:05:39.858Z,11.26
2017-05-04T06:06:40.463Z,11.21
2017-05-04T06:07:41.064Z,11.26
2017-05-04T06:08:41.678Z,11.30
2017-05-04T06:09:42.343Z,11.24
2017-05-04T06:10:42.959Z,11.27
2017-05-04T06:11:43.559Z,11.26
2017-05-04T06:12:44.162Z,11.32
2017-05-04T06:13:44.766Z,11.27
2017-05-04T06:14:45.392Z,11.27
2017-05-04T06:15:45.996Z,11.37
2017-05-04T06:16:46.617Z,11.42
2017-05-04T06:17:47.228Z,11.36
2017-05-04T06:18:47.833Z,11.32
2017-05-04T06:19:48.491Z,11.32
2017-05-04T06:20:49.105Z,11.40
2017-05-04T06:21:49.718Z,11.42
2017-05-04T06:22:50.334Z,11.51
2017-05-04T06:23:50.960Z,11.44
2017-05-04T06:24:51.570Z,11.47
2017-05-04T06:25:52.183Z,11.47
2017-05-04T06:26:52.788Z,11.50
2017-05-04T06:27:53.397Z,11.58
2017-05-04T06:28:54.007Z,11.58
2017-05-04T06:29:54.673Z,11.54
2017-05-04T06:30:55.282Z,11.48
2017-05-04T06:31:55.898Z,11.47
2017-05-04T06:32:56.553Z,11.52
2017-05-04T06:33:57.140Z,11.42
2017-05-04T06:34:57.788Z,11.57
2017-05-04T06:35:58.405Z,11.58
2017-05-04T06:36:59.223Z,11.62
2017-05-04T06:37:59.833Z,11.55
2017-05-04T06:39:00.450Z,11.57
2017-05-04T06:40:01.073Z,11.50
2017-05-04T06:41:01.677Z,11.59
2017-05-04T06:42:02.288Z,11.63
2017-05-04T06:43:02.899Z,11.65
2017-05-04T06:44:03.500Z,11.50
2017-05-04T06:45:04.105Z,11.50
2017-05-04T06:46:04.709Z,11.44
2017-05-04T06:47:05.315Z,11.54
2017-05-04T06:48:05.932Z,11.51
2017-05-04T06:49:06.560Z,11.52
2017-05-04T06:50:07.174Z,11.51
2017-05-04T06:51:07.793Z,11.52
2017-05-04T06:52:08.396Z,11.59
2017-05-04T06:53:09.005Z,11.55
2017-05-04T06:54:09.619Z,11.59
2017-05-04T06:55:10.236Z,11.57
2017-05-04T06:56:10.849Z,11.51
2017-05-04T06:57:11.457Z,11.51
2017-05-04T06:58:12.061Z,11.51
2017-05-04T06:59:12.675Z,11.40
2017-05-04T07:00:13.337Z,11.51
2017-05-04T07:01:13.942Z,11.42
2017-05-04T07:02:14.561Z,11.50
2017-05-04T07:03:15.180Z,11.48
2017-05-04T07:04:15.797Z,11.42
2017-05-04T07:05:16.450Z,11.40
2017-05-04T07:06:17.072Z,11.39
2017-05-04T07:07:17.688Z,11.52
2017-05-04T07:08:18.306Z,11.45
2017-05-04T07:09:18.917Z,11.42
2017-05-04T07:10:19.521Z,11.30
2017-05-04T07:11:20.140Z,11.40
2017-05-04T07:12:20.754Z,11.36
2017-05-04T07:13:21.373Z,11.30
2017-05-04T07:14:21.983Z,11.44
2017-05-04T07:15:22.644Z,11.39
2017-05-04T07:16:23.247Z,11.44
2017-05-04T07:17:23.845Z,11.50
2017-05-04T07:18:24.463Z,11.44
2017-05-04T07:19:25.077Z,11.51
2017-05-04T07:20:25.741Z,11.40
2017-05-04T07:21:26.347Z,11.44
2017-05-04T07:22:26.960Z,11.44
2017-05-04T07:23:27.587Z,11.36
2017-05-04T07:24:28.183Z,11.45
2017-05-04T07:25:28.836Z,11.39
2017-05-04T07:26:29.450Z,11.51
2017-05-04T07:27:30.052Z,11.47
2017-05-04T07:28:30.671Z,11.54
2017-05-04T07:29:31.288Z,11.45
2017-05-04T07:30:31.905Z,11.54
2017-05-04T07:31:32.520Z,11.57
2017-05-04T07:32:33.146Z,11.67
2017-05-04T07:33:33.763Z,11.63
2017-05-04T07:34:34.374Z,11.63
2017-05-04T07:35:34.979Z,11.51
2017-05-04T07:36:35.593Z,11.58
2017-05-04T07:37:36.213Z,11.54
2017-05-04T07:38:36.833Z,11.69
2017-05-04T07:39:37.434Z,11.57
2017-05-04T07:40:38.090Z,11.67
2017-05-04T07:41:38.697Z,11.75
2017-05-04T07:42:39.307Z,11.72
2017-05-04T07:43:39.926Z,11.81
2017-05-04T07:44:40.575Z,11.77
2017-05-04T07:45:41.296Z,11.80
2017-05-04T07:46:41.912Z,11.91
2017-05-04T07:47:42.525Z,11.90
2017-05-04T07:48:43.143Z,11.91
2017-05-04T07:49:43.763Z,11.90
2017-05-04T07:50:44.430Z,12.04
2017-05-04T07:51:45.047Z,12.10
2017-05-04T07:52:45.662Z,12.09
2017-05-04T07:53:46.266Z,12.11
2017-05-04T07:54:46.877Z,12.10
2017-05-04T07:55:47.544Z,12.11
2017-05-04T07:56:48.164Z,12.11
2017-05-04T07:57:48.780Z,12.01
2017-05-04T07:58:49.396Z,12.00
2017-05-04T07:59:50.016Z,12.00
2017-05-04T08:00:50.684Z,12.14
2017-05-04T08:01:51.346Z,12.22
2017-05-04T08:02:51.941Z,12.31
2017-05-04T08:03:52.544Z,12.21
2017-05-04T08:04:53.363Z,12.22
2017-05-04T08:05:54.037Z,12.27
2017-05-04T08:06:54.643Z,12.34
2017-05-04T08:07:55.263Z,12.31
2017-05-04T08:08:55.871Z,12.40
2017-05-04T08:09:56.487Z,12.49
2017-05-04T08:10:57.171Z,12.67
2017-05-04T08:11:57.789Z,12.69
2017-05-04T08:12:58.395Z,12.69
2017-05-04T08:13:59.017Z,12.90
2017-05-04T08:14:59.629Z,12.94
2017-05-04T08:16:00.247Z,13.05
2017-05-04T08:17:00.865Z,13.13
2017-05-04T08:18:01.484Z,13.25
2017-05-04T08:19:02.103Z,13.10
2017-05-04T08:20:02.722Z,13.19
2017-05-04T08:21:03.384Z,13.18
2017-05-04T08:22:03.991Z,13.00
2017-05-04T08:23:04.611Z,13.07
2017-05-04T08:24:05.224Z,13.07
2017-05-04T08:25:05.838Z,13.04
2017-05-04T08:26:06.451Z,13.20
2017-05-04T08:27:07.066Z,13.16
2017-05-04T08:28:07.671Z,13.13
2017-05-04T08:29:08.283Z,13.07
2017-05-04T08:30:08.902Z,13.08
2017-05-04T08:31:09.558Z,13.20
2017-05-04T08:32:10.171Z,13.25
2017-05-04T08:33:10.781Z,13.25
2017-05-04T08:34:11.401Z,13.22
2017-05-04T08:35:12.007Z,13.36
2017-05-04T08:36:12.625Z,13.36
2017-05-04T08:37:13.241Z,13.44
2017-05-04T08:38:13.861Z,13.44
2017-05-04T08:39:14.472Z,13.38
2017-05-04T08:40:15.082Z,13.31
2017-05-04T08:41:15.750Z,13.23
2017-05-04T08:42:16.369Z,13.30
2017-05-04T08:43:16.988Z,13.31
2017-05-04T08:44:17.612Z,13.19
2017-05-04T08:45:18.223Z,13.16
2017-05-04T08:46:18.842Z,13.13
2017-05-04T08:47:19.463Z,13.31
2017-05-04T08:48:20.082Z,13.22
2017-05-04T08:49:20.706Z,13.30
2017-05-04T08:50:21.322Z,13.22
2017-05-04T08:51:21.936Z,13.25
2017-05-04T08:52:22.554Z,13.10
2017-05-04T08:53:23.175Z,13.18
2017-05-04T08:54:23.779Z,13.01
2017-05-04T08:55:24.402Z,13.08
2017-05-04T08:56:25.072Z,13.04
2017-05-04T08:57:25.744Z,12.95
2017-05-04T08:58:26.367Z,12.94
2017-05-04T08:59:26.975Z,12.94
2017-05-04T09:00:27.582Z,12.89
2017-05-04T09:01:28.264Z,12.85
2017-05-04T09:02:28.899Z,12.85
2017-05-04T09:03:29.568Z,12.93
2017-05-04T09:04:30.216Z,12.98
2017-05-04T09:05:30.829Z,13.00
2017-05-04T09:06:31.489Z,13.00
2017-05-04T09:07:32.107Z,13.01
2017-05-04T09:08:32.721Z,13.10
2017-05-04T09:09:33.328Z,13.19
2017-05-04T09:10:33.949Z,13.31
2017-05-04T09:11:34.617Z,13.41
2017-05-04T09:12:35.233Z,13.45
2017-05-04T09:13:35.854Z,13.44
2017-05-04T09:14:36.458Z,13.52
2017-05-04T09:15:37.075Z,13.56
2017-05-04T09:16:37.683Z,13.59
2017-05-04T09:17:38.287Z,13.72
2017-05-04T09:18:38.902Z,13.71
2017-05-04T09:19:39.520Z,13.77
2017-05-04T09:20:40.138Z,13.82
2017-05-04T09:21:40.752Z,13.77
2017-05-04T09:22:41.367Z,13.77
2017-05-04T09:23:41.979Z,13.87
2017-05-04T09:24:42.587Z,13.99
2017-05-04T09:25:43.210Z,14.11
2017-05-04T09:26:43.881Z,13.99
2017-05-04T09:27:44.484Z,14.05
2017-05-04T09:28:45.094Z,14.10
2017-05-04T09:29:45.718Z,14.10
2017-05-04T09:30:46.340Z,14.15
2017-05-04T09:31:47.014Z,14.23
2017-05-04T09:32:47.634Z,14.33
2017-05-04T09:33:48.243Z,14.43
2017-05-04T09:34:48.863Z,14.37
2017-05-04T09:35:49.479Z,14.47
2017-05-04T09:36:50.096Z,14.65
2017-05-04T09:37:50.739Z,14.88
2017-05-04T09:38:51.340Z,15.19
2017-05-04T09:39:51.964Z,15.17
2017-05-04T09:40:52.590Z,15.19
2017-05-04T09:41:53.249Z,15.22
2017-05-04T09:42:53.859Z,15.25
2017-05-04T09:43:54.479Z,15.18
2017-05-04T09:44:55.103Z,15.17
2017-05-04T09:45:55.731Z,15.24
2017-05-04T09:46:56.400Z,15.22
2017-05-04T09:47:57.023Z,15.28
2017-05-04T09:48:57.645Z,15.25
2017-05-04T09:49:58.267Z,15.46
2017-05-04T09:50:58.914Z,15.54
2017-05-04T09:51:59.572Z,15.67
2017-05-04T09:53:00.191Z,15.67
2017-05-04T09:54:00.813Z,15.55
2017-05-04T09:55:01.437Z,15.54
2017-05-04T09:56:02.049Z,15.65
2017-05-04T09:57:02.658Z,15.49
2017-05-04T09:58:03.281Z,15.49
2017-05-04T09:59:03.901Z,15.50
2017-05-04T10:00:04.511Z,15.64
2017-05-04T10:01:05.134Z,15.79
2017-05-04T10:02:05.874Z,15.89
2017-05-04T10:03:06.484Z,15.77
2017-05-04T10:04:07.102Z,15.76
2017-05-04T10:05:07.716Z,15.69
2017-05-04T10:06:08.374Z,15.61
2017-05-04T10:07:08.989Z,15.37
2017-05-04T10:08:09.607Z,15.54
2017-05-04T10:09:10.234Z,15.62
2017-05-04T10:10:10.883Z,15.75
2017-05-04T10:11:11.513Z,15.87
2017-05-04T10:12:12.133Z,15.83
2017-05-04T10:13:12.755Z,15.83
2017-05-04T10:14:13.386Z,15.64
2017-05-04T10:15:13.973Z,15.80
2017-05-04T10:16:14.588Z,15.79
2017-05-04T10:17:15.268Z,15.67
2017-05-04T10:18:15.890Z,15.65
2017-05-04T10:19:16.511Z,15.64
2017-05-04T10:20:17.131Z,15.61
2017-05-04T10:21:17.744Z,15.69
2017-05-04T10:22:18.412Z,15.77
2017-05-04T10:23:19.032Z,15.64
2017-05-04T10:24:19.650Z,15.55
2017-05-04T10:25:20.257Z,15.57
2017-05-04T10:26:20.877Z,15.43
2017-05-04T10:27:21.502Z,15.21
2017-05-04T10:28:22.123Z,14.99
2017-05-04T10:29:22.738Z,14.94
2017-05-04T10:30:23.348Z,14.95
2017-05-04T10:31:23.978Z,15.01
2017-05-04T10:32:24.574Z,14.96
2017-05-04T10:33:25.188Z,14.99
2017-05-04T10:34:25.814Z,15.03
2017-05-04T10:35:26.419Z,15.09
2017-05-04T10:36:27.026Z,15.06
2017-05-04T10:37:27.682Z,15.10
2017-05-04T10:38:28.303Z,15.21
2017-05-04T10:39:28.931Z,15.31
2017-05-04T10:40:29.547Z,15.37
2017-05-04T10:41:30.167Z,15.31
2017-05-04T10:42:30.826Z,15.49
2017-05-04T10:43:31.444Z,15.49
2017-05-04T10:44:32.063Z,15.54
2017-05-04T10:45:32.669Z,15.61
2017-05-04T10:46:33.275Z,15.58
2017-05-04T10:47:33.884Z,15.57
2017-05-04T10:48:34.506Z,15.50
2017-05-04T10:49:35.126Z,15.51
2017-05-04T10:50:35.750Z,15.50
2017-05-04T10:51:36.375Z,15.67
2017-05-04T10:52:36.983Z,15.67
2017-05-04T10:53:37.589Z,15.79
2017-05-04T10:54:38.198Z,16.01
2017-05-04T10:55:38.803Z,15.86
2017-05-04T10:56:39.419Z,16.04
2017-05-04T10:57:40.036Z,15.86
2017-05-04T10:58:40.657Z,15.64
2017-05-04T10:59:41.275Z,15.65
2017-05-04T11:00:41.893Z,15.65
2017-05-04T11:01:42.500Z,15.49
2017-05-04T11:02:43.120Z,15.46
2017-05-04T11:03:43.741Z,15.36
2017-05-04T11:04:44.364Z,15.31
2017-05-04T11:05:44.998Z,15.24
2017-05-04T11:06:45.632Z,15.13
2017-05-04T11:07:46.265Z,15.18
2017-05-04T11:08:46.880Z,15.26
2017-05-04T11:09:47.497Z,15.19
2017-05-04T11:10:48.119Z,15.26
2017-05-04T11:11:48.740Z,15.24
2017-05-04T11:12:49.410Z,15.07
2017-05-04T11:13:50.024Z,14.94
2017-05-04T11:14:50.626Z,14.88
2017-05-04T11:15:51.251Z,14.75
2017-05-04T11:16:52.092Z,14.60
2017-05-04T11:17:52.771Z,14.65
2017-05-04T11:18:53.585Z,14.81
2017-05-04T11:19:54.204Z,14.86
2017-05-04T11:20:54.825Z,14.85
2017-05-04T11:21:55.432Z,14.70
2017-05-04T11:22:56.044Z,14.81
2017-05-04T11:23:56.666Z,14.84
2017-05-04T11:24:57.289Z,14.96
2017-05-04T11:25:57.910Z,15.14
2017-05-04T11:26:58.660Z,15.24
2017-05-04T11:27:59.298Z,15.22
2017-05-04T11:28:59.929Z,15.09
2017-05-04T11:30:00.721Z,15.19
2017-05-04T11:31:01.344Z,15.22
2017-05-04T11:32:01.963Z,15.18
2017-05-04T11:33:02.646Z,15.26
2017-05-04T11:34:03.289Z,15.29
2017-05-04T11:35:03.953Z,15.31
2017-05-04T11:36:04.573Z,15.22
2017-05-04T11:37:05.195Z,15.49
2017-05-04T11:38:05.853Z,15.54
2017-05-04T11:39:06.478Z,15.49
2017-05-04T11:40:07.101Z,15.47
2017-05-04T11:41:07.711Z,15.42
2017-05-04T11:42:08.326Z,15.29
2017-05-04T11:43:08.984Z,15.28
2017-05-04T11:44:09.608Z,15.26
2017-05-04T11:45:10.226Z,15.34
2017-05-04T11:46:10.837Z,15.37
2017-05-04T11:47:11.465Z,15.37
2017-05-04T11:48:12.095Z,15.28
2017-05-04T11:49:12.719Z,15.22
2017-05-04T11:50:13.329Z,15.28
2017-05-04T11:51:13.941Z,15.37
2017-05-04T11:52:14.556Z,15.47
2017-05-04T11:53:15.216Z,15.40
2017-05-04T11:54:15.834Z,15.36
2017-05-04T11:55:16.447Z,15.32
2017-05-04T11:56:17.090Z,15.18
2017-05-04T11:57:17.708Z,15.01
2017-05-04T11:58:18.374Z,14.94
2017-05-04T11:59:18.993Z,14.85
2017-05-04T12:00:19.648Z,14.86
2017-05-04T12:01:20.284Z,14.66
2017-05-04T12:02:20.912Z,14.66
2017-05-04T12:03:21.586Z,14.65
2017-05-04T12:04:22.218Z,14.62
2017-05-04T12:05:22.839Z,14.45
2017-05-04T12:06:23.463Z,14.27
2017-05-04T12:07:24.092Z,14.27
2017-05-04T12:08:24.981Z,14.29
2017-05-04T12:09:25.734Z,14.21
2017-05-04T12:10:26.338Z,14.14
2017-05-04T12:11:26.957Z,14.10
2017-05-04T12:12:27.589Z,14.08
2017-05-04T12:13:28.251Z,13.94
2017-05-04T12:14:28.852Z,14.05
2017-05-04T12:15:29.459Z,13.99
2017-05-04T12:16:30.096Z,13.77
2017-05-04T12:17:30.733Z,13.78
2017-05-04T12:18:31.393Z,13.75
2017-05-04T12:19:32.012Z,13.82
2017-05-04T12:20:32.620Z,13.72
2017-05-04T12:21:33.239Z,13.89
2017-05-04T12:22:34.058Z,13.77
2017-05-04T12:23:35.726Z,13.77
2017-05-04T12:24:36.322Z,13.74
2017-05-04T12:25:36.926Z,13.71
2017-05-04T12:26:37.546Z,13.77
2017-05-04T12:27:38.157Z,13.77
2017-05-04T12:28:38.778Z,13.69
2017-05-04T12:29:39.379Z,13.77
2017-05-04T12:30:39.996Z,13.89
2017-05-04T12:31:40.615Z,13.86
2017-05-04T12:32:41.224Z,13.86
2017-05-04T12:33:41.896Z,13.86
2017-05-04T12:34:42.515Z,14.02
2017-05-04T12:35:43.153Z,14.08
2017-05-04T12:36:43.754Z,14.18
2017-05-04T12:37:44.424Z,14.14
2017-05-04T12:38:45.238Z,14.33
2017-05-04T12:39:45.896Z,14.35
2017-05-04T12:40:46.742Z,14.35
2017-05-04T12:41:47.357Z,14.40
2017-05-04T12:42:47.973Z,14.44
2017-05-04T12:43:48.579Z,14.60
2017-05-04T12:44:49.190Z,14.36
2017-05-04T12:45:49.814Z,14.26
2017-05-04T12:46:50.448Z,14.19
2017-05-04T12:47:51.337Z,14.21
2017-05-04T12:48:51.978Z,14.07
2017-05-04T12:49:52.584Z,14.10
2017-05-04T12:50:53.205Z,14.15
2017-05-04T12:51:53.819Z,14.25
2017-05-04T12:52:54.429Z,14.44
2017-05-04T12:53:55.086Z,14.47
2017-05-04T12:54:55.704Z,14.51
2017-05-04T12:55:56.310Z,14.63
2017-05-04T12:56:56.929Z,14.69
2017-05-04T12:57:57.553Z,14.69
2017-05-04T12:58:58.176Z,14.58
2017-05-04T12:59:58.795Z,14.50
2017-05-04T13:00:59.421Z,14.43